sensor_id;sensor_type;location;lat;lon;timestamp;P1;durP1;ratioP1;P2;durP2;ratioP2
40355;SDS011;26061;50.044;19.930;2023-04-24T00:00:05;25.98;;;15.52;;
40355;SDS011;26061;50.044;19.930;2023-04-24T00:02:32;25.35;;;15.48;;
40355;SDS011;26061;50.044;19.930;2023-04-24T00:04:58;27.52;;;15.50;;
40355;SDS011;26061;50.044;19.930;2023-04-24T00:07:31;27.23;;;15.13;;
40355;SDS011;26061;50.044;19.930;2023-04-24T00:09:56;29.40;;;16.63;;
40355;SDS011;26061;50.044;19.930;2023-04-24T00:12:22;26.50;;;15.55;;
40355;SDS011;26061;50.044;19.930;2023-04-24T00:14:47;27.93;;;14.87;;
40355;SDS011;26061;50.044;19.930;2023-04-24T00:17:13;24.58;;;15.27;;
40355;SDS011;26061;50.044;19.930;2023-04-24T00:19:38;27.75;;;15.07;;
40355;SDS011;26061;50.044;19.930;2023-04-24T00:22:04;30.17;;;16.38;;
40355;SDS011;26061;50.044;19.930;2023-04-24T00:24:30;27.13;;;15.35;;
40355;SDS011;26061;50.044;19.930;2023-04-24T00:26:56;25.77;;;14.45;;
40355;SDS011;26061;50.044;19.930;2023-04-24T00:29:21;22.90;;;14.25;;
40355;SDS011;26061;50.044;19.930;2023-04-24T00:31:47;23.15;;;14.45;;
40355;SDS011;26061;50.044;19.930;2023-04-24T00:34:12;23.50;;;14.65;;
40355;SDS011;26061;50.044;19.930;2023-04-24T00:36:38;21.08;;;14.55;;
40355;SDS011;26061;50.044;19.930;2023-04-24T00:39:03;28.67;;;15.88;;
40355;SDS011;26061;50.044;19.930;2023-04-24T00:41:29;26.90;;;14.52;;
40355;SDS011;26061;50.044;19.930;2023-04-24T00:43:55;26.75;;;14.70;;
40355;SDS011;26061;50.044;19.930;2023-04-24T00:46:21;25.08;;;14.25;;
40355;SDS011;26061;50.044;19.930;2023-04-24T00:48:46;26.75;;;14.82;;
40355;SDS011;26061;50.044;19.930;2023-04-24T00:51:12;23.17;;;13.85;;
40355;SDS011;26061;50.044;19.930;2023-04-24T00:53:38;24.58;;;14.43;;
40355;SDS011;26061;50.044;19.930;2023-04-24T00:56:03;23.93;;;14.17;;
40355;SDS011;26061;50.044;19.930;2023-04-24T00:58:29;20.43;;;12.67;;
40355;SDS011;26061;50.044;19.930;2023-04-24T01:00:56;25.70;;;14.90;;
40355;SDS011;26061;50.044;19.930;2023-04-24T01:03:24;20.20;;;13.07;;
40355;SDS011;26061;50.044;19.930;2023-04-24T01:05:51;20.57;;;12.27;;
40355;SDS011;26061;50.044;19.930;2023-04-24T01:08:17;22.70;;;13.70;;
40355;SDS011;26061;50.044;19.930;2023-04-24T01:10:43;23.10;;;13.80;;
40355;SDS011;26061;50.044;19.930;2023-04-24T01:13:09;23.33;;;13.97;;
40355;SDS011;26061;50.044;19.930;2023-04-24T01:15:35;23.38;;;14.63;;
40355;SDS011;26061;50.044;19.930;2023-04-24T01:18:01;22.40;;;13.33;;
40355;SDS011;26061;50.044;19.930;2023-04-24T01:20:26;24.30;;;13.60;;
40355;SDS011;26061;50.044;19.930;2023-04-24T01:22:54;22.95;;;13.48;;
40355;SDS011;26061;50.044;19.930;2023-04-24T01:25:20;24.88;;;14.35;;
40355;SDS011;26061;50.044;19.930;2023-04-24T01:27:45;25.37;;;14.63;;
40355;SDS011;26061;50.044;19.930;2023-04-24T01:30:11;24.45;;;14.45;;
40355;SDS011;26061;50.044;19.930;2023-04-24T01:32:37;20.77;;;13.50;;
40355;SDS011;26061;50.044;19.930;2023-04-24T01:35:03;23.70;;;14.10;;
40355;SDS011;26061;50.044;19.930;2023-04-24T01:37:29;21.47;;;12.83;;
40355;SDS011;26061;50.044;19.930;2023-04-24T01:39:55;24.38;;;14.15;;
40355;SDS011;26061;50.044;19.930;2023-04-24T01:42:20;23.33;;;13.60;;
40355;SDS011;26061;50.044;19.930;2023-04-24T01:44:46;29.17;;;14.60;;
40355;SDS011;26061;50.044;19.930;2023-04-24T01:47:12;24.90;;;15.07;;
40355;SDS011;26061;50.044;19.930;2023-04-24T01:49:38;23.47;;;14.23;;
40355;SDS011;26061;50.044;19.930;2023-04-24T01:52:04;20.13;;;13.10;;
40355;SDS011;26061;50.044;19.930;2023-04-24T01:54:30;22.07;;;13.63;;
40355;SDS011;26061;50.044;19.930;2023-04-24T01:56:55;23.47;;;13.73;;
40355;SDS011;26061;50.044;19.930;2023-04-24T01:59:21;24.43;;;13.80;;
40355;SDS011;26061;50.044;19.930;2023-04-24T02:01:48;27.10;;;14.30;;
40355;SDS011;26061;50.044;19.930;2023-04-24T02:04:14;23.33;;;13.47;;
40355;SDS011;26061;50.044;19.930;2023-04-24T02:06:40;24.60;;;14.10;;
40355;SDS011;26061;50.044;19.930;2023-04-24T02:09:06;20.57;;;13.57;;
40355;SDS011;26061;50.044;19.930;2023-04-24T02:11:31;25.13;;;14.37;;
40355;SDS011;26061;50.044;19.930;2023-04-24T02:13:57;23.23;;;14.43;;
40355;SDS011;26061;50.044;19.930;2023-04-24T02:16:23;22.57;;;14.10;;
40355;SDS011;26061;50.044;19.930;2023-04-24T02:18:48;24.53;;;13.50;;
40355;SDS011;26061;50.044;19.930;2023-04-24T02:21:14;23.10;;;13.03;;
40355;SDS011;26061;50.044;19.930;2023-04-24T02:23:40;23.93;;;13.83;;
40355;SDS011;26061;50.044;19.930;2023-04-24T02:26:05;25.63;;;14.23;;
40355;SDS011;26061;50.044;19.930;2023-04-24T02:28:31;25.13;;;13.50;;
40355;SDS011;26061;50.044;19.930;2023-04-24T02:30:56;26.63;;;14.17;;
40355;SDS011;26061;50.044;19.930;2023-04-24T02:33:22;25.40;;;13.63;;
40355;SDS011;26061;50.044;19.930;2023-04-24T02:35:47;24.13;;;13.50;;
40355;SDS011;26061;50.044;19.930;2023-04-24T02:38:13;23.47;;;13.90;;
40355;SDS011;26061;50.044;19.930;2023-04-24T02:40:38;23.27;;;13.17;;
40355;SDS011;26061;50.044;19.930;2023-04-24T02:43:04;23.50;;;13.60;;
40355;SDS011;26061;50.044;19.930;2023-04-24T02:45:30;21.77;;;13.30;;
40355;SDS011;26061;50.044;19.930;2023-04-24T02:47:55;22.63;;;13.57;;
40355;SDS011;26061;50.044;19.930;2023-04-24T02:50:21;24.93;;;13.53;;
40355;SDS011;26061;50.044;19.930;2023-04-24T02:52:47;21.60;;;13.23;;
40355;SDS011;26061;50.044;19.930;2023-04-24T02:55:12;21.73;;;13.10;;
40355;SDS011;26061;50.044;19.930;2023-04-24T02:57:38;25.17;;;13.03;;
40355;SDS011;26061;50.044;19.930;2023-04-24T03:00:04;22.37;;;12.87;;
40355;SDS011;26061;50.044;19.930;2023-04-24T03:02:32;24.17;;;12.77;;
40355;SDS011;26061;50.044;19.930;2023-04-24T03:04:57;21.27;;;12.37;;
40355;SDS011;26061;50.044;19.930;2023-04-24T03:07:23;21.70;;;12.57;;
40355;SDS011;26061;50.044;19.930;2023-04-24T03:09:49;24.00;;;13.30;;
40355;SDS011;26061;50.044;19.930;2023-04-24T03:12:14;24.23;;;13.77;;
40355;SDS011;26061;50.044;19.930;2023-04-24T03:14:42;23.53;;;14.33;;
40355;SDS011;26061;50.044;19.930;2023-04-24T03:17:07;26.87;;;13.57;;
40355;SDS011;26061;50.044;19.930;2023-04-24T03:19:33;19.60;;;12.97;;
40355;SDS011;26061;50.044;19.930;2023-04-24T03:21:58;23.17;;;13.00;;
40355;SDS011;26061;50.044;19.930;2023-04-24T03:24:24;23.17;;;13.73;;
40355;SDS011;26061;50.044;19.930;2023-04-24T03:26:50;23.37;;;13.13;;
40355;SDS011;26061;50.044;19.930;2023-04-24T03:29:15;22.33;;;12.90;;
40355;SDS011;26061;50.044;19.930;2023-04-24T03:31:41;22.07;;;12.80;;
40355;SDS011;26061;50.044;19.930;2023-04-24T03:34:06;23.27;;;12.40;;
40355;SDS011;26061;50.044;19.930;2023-04-24T03:36:32;23.60;;;12.70;;
40355;SDS011;26061;50.044;19.930;2023-04-24T03:38:57;20.87;;;11.43;;
40355;SDS011;26061;50.044;19.930;2023-04-24T03:41:23;22.87;;;12.20;;
40355;SDS011;26061;50.044;19.930;2023-04-24T03:43:48;26.67;;;13.90;;
40355;SDS011;26061;50.044;19.930;2023-04-24T03:46:15;20.63;;;11.73;;
40355;SDS011;26061;50.044;19.930;2023-04-24T03:48:40;22.73;;;12.60;;
40355;SDS011;26061;50.044;19.930;2023-04-24T03:51:06;25.97;;;13.40;;
40355;SDS011;26061;50.044;19.930;2023-04-24T03:53:31;21.50;;;12.77;;
40355;SDS011;26061;50.044;19.930;2023-04-24T03:55:57;24.50;;;11.90;;
40355;SDS011;26061;50.044;19.930;2023-04-24T03:58:22;22.57;;;11.63;;
40355;SDS011;26061;50.044;19.930;2023-04-24T04:00:48;23.03;;;12.50;;
40355;SDS011;26061;50.044;19.930;2023-04-24T04:03:14;26.40;;;12.93;;
40355;SDS011;26061;50.044;19.930;2023-04-24T04:05:40;22.10;;;12.27;;
40355;SDS011;26061;50.044;19.930;2023-04-24T04:08:06;21.20;;;12.40;;
40355;SDS011;26061;50.044;19.930;2023-04-24T04:10:31;20.53;;;12.20;;
40355;SDS011;26061;50.044;19.930;2023-04-24T04:12:57;18.77;;;12.30;;
40355;SDS011;26061;50.044;19.930;2023-04-24T04:15:22;27.97;;;11.67;;
40355;SDS011;26061;50.044;19.930;2023-04-24T04:17:48;24.30;;;12.00;;
40355;SDS011;26061;50.044;19.930;2023-04-24T04:20:13;24.45;;;11.98;;
40355;SDS011;26061;50.044;19.930;2023-04-24T04:22:39;26.00;;;12.65;;
40355;SDS011;26061;50.044;19.930;2023-04-24T04:25:05;18.73;;;11.32;;
40355;SDS011;26061;50.044;19.930;2023-04-24T04:27:30;21.33;;;12.32;;
40355;SDS011;26061;50.044;19.930;2023-04-24T04:30:00;19.92;;;11.50;;
40355;SDS011;26061;50.044;19.930;2023-04-24T04:32:32;21.83;;;11.02;;
40355;SDS011;26061;50.044;19.930;2023-04-24T04:35:01;17.75;;;10.38;;
40355;SDS011;26061;50.044;19.930;2023-04-24T04:37:30;21.17;;;11.05;;
40355;SDS011;26061;50.044;19.930;2023-04-24T04:39:56;18.27;;;10.48;;
40355;SDS011;26061;50.044;19.930;2023-04-24T04:42:23;16.92;;;10.45;;
40355;SDS011;26061;50.044;19.930;2023-04-24T04:44:49;19.93;;;10.37;;
40355;SDS011;26061;50.044;19.930;2023-04-24T04:47:16;17.92;;;10.30;;
40355;SDS011;26061;50.044;19.930;2023-04-24T04:49:42;19.63;;;9.75;;
40355;SDS011;26061;50.044;19.930;2023-04-24T04:52:08;17.05;;;10.35;;
40355;SDS011;26061;50.044;19.930;2023-04-24T04:54:34;19.98;;;10.10;;
40355;SDS011;26061;50.044;19.930;2023-04-24T04:56:59;17.35;;;10.20;;
40355;SDS011;26061;50.044;19.930;2023-04-24T04:59:26;16.20;;;8.80;;
40355;SDS011;26061;50.044;19.930;2023-04-24T05:01:51;22.90;;;9.88;;
40355;SDS011;26061;50.044;19.930;2023-04-24T05:04:17;14.60;;;9.18;;
40355;SDS011;26061;50.044;19.930;2023-04-24T05:06:43;18.38;;;9.27;;
40355;SDS011;26061;50.044;19.930;2023-04-24T05:09:09;14.88;;;8.75;;
40355;SDS011;26061;50.044;19.930;2023-04-24T05:11:34;15.95;;;9.63;;
40355;SDS011;26061;50.044;19.930;2023-04-24T05:14:00;18.20;;;10.50;;
40355;SDS011;26061;50.044;19.930;2023-04-24T05:16:26;17.83;;;11.02;;
40355;SDS011;26061;50.044;19.930;2023-04-24T05:18:51;18.77;;;9.98;;
40355;SDS011;26061;50.044;19.930;2023-04-24T05:21:17;15.25;;;9.30;;
40355;SDS011;26061;50.044;19.930;2023-04-24T05:23:43;18.83;;;8.38;;
40355;SDS011;26061;50.044;19.930;2023-04-24T05:26:08;16.02;;;8.60;;
40355;SDS011;26061;50.044;19.930;2023-04-24T05:28:34;17.15;;;8.27;;
40355;SDS011;26061;50.044;19.930;2023-04-24T05:31:01;11.13;;;7.35;;
40355;SDS011;26061;50.044;19.930;2023-04-24T05:33:27;16.35;;;8.77;;
40355;SDS011;26061;50.044;19.930;2023-04-24T05:35:53;15.35;;;9.13;;
40355;SDS011;26061;50.044;19.930;2023-04-24T05:38:18;18.83;;;8.15;;
40355;SDS011;26061;50.044;19.930;2023-04-24T05:40:45;16.25;;;8.20;;
40355;SDS011;26061;50.044;19.930;2023-04-24T05:43:10;14.90;;;7.82;;
40355;SDS011;26061;50.044;19.930;2023-04-24T05:45:36;14.48;;;8.18;;
40355;SDS011;26061;50.044;19.930;2023-04-24T05:48:02;12.35;;;7.43;;
40355;SDS011;26061;50.044;19.930;2023-04-24T05:50:27;11.57;;;6.80;;
40355;SDS011;26061;50.044;19.930;2023-04-24T05:52:53;10.68;;;7.05;;
40355;SDS011;26061;50.044;19.930;2023-04-24T05:55:19;15.50;;;7.13;;
40355;SDS011;26061;50.044;19.930;2023-04-24T05:57:44;13.75;;;6.97;;
40355;SDS011;26061;50.044;19.930;2023-04-24T06:00:11;8.20;;;6.13;;
40355;SDS011;26061;50.044;19.930;2023-04-24T06:02:38;11.85;;;6.05;;
40355;SDS011;26061;50.044;19.930;2023-04-24T06:05:04;10.57;;;5.97;;
40355;SDS011;26061;50.044;19.930;2023-04-24T06:07:30;11.77;;;6.45;;
40355;SDS011;26061;50.044;19.930;2023-04-24T06:09:56;10.48;;;6.15;;
40355;SDS011;26061;50.044;19.930;2023-04-24T06:12:22;10.27;;;6.25;;
40355;SDS011;26061;50.044;19.930;2023-04-24T06:14:48;8.93;;;5.85;;
40355;SDS011;26061;50.044;19.930;2023-04-24T06:17:14;13.30;;;5.70;;
40355;SDS011;26061;50.044;19.930;2023-04-24T06:19:39;9.85;;;5.55;;
40355;SDS011;26061;50.044;19.930;2023-04-24T06:22:05;9.25;;;5.93;;
40355;SDS011;26061;50.044;19.930;2023-04-24T06:24:31;9.15;;;5.30;;
40355;SDS011;26061;50.044;19.930;2023-04-24T06:26:57;11.50;;;5.63;;
40355;SDS011;26061;50.044;19.930;2023-04-24T06:29:24;11.27;;;5.30;;
40355;SDS011;26061;50.044;19.930;2023-04-24T06:31:49;9.98;;;5.43;;
40355;SDS011;26061;50.044;19.930;2023-04-24T06:34:15;8.98;;;5.55;;
40355;SDS011;26061;50.044;19.930;2023-04-24T06:36:40;8.63;;;5.53;;
40355;SDS011;26061;50.044;19.930;2023-04-24T06:39:06;12.30;;;5.47;;
40355;SDS011;26061;50.044;19.930;2023-04-24T06:41:32;6.80;;;5.25;;
40355;SDS011;26061;50.044;19.930;2023-04-24T06:43:57;13.30;;;5.68;;
40355;SDS011;26061;50.044;19.930;2023-04-24T06:46:23;9.90;;;5.35;;
40355;SDS011;26061;50.044;19.930;2023-04-24T06:48:51;9.30;;;5.38;;
40355;SDS011;26061;50.044;19.930;2023-04-24T06:51:17;5.72;;;4.85;;
40355;SDS011;26061;50.044;19.930;2023-04-24T06:53:43;13.23;;;5.03;;
40355;SDS011;26061;50.044;19.930;2023-04-24T06:56:09;11.00;;;5.85;;
40355;SDS011;26061;50.044;19.930;2023-04-24T06:58:34;9.15;;;5.43;;
40355;SDS011;26061;50.044;19.930;2023-04-24T07:01:00;9.20;;;4.57;;
40355;SDS011;26061;50.044;19.930;2023-04-24T07:03:25;7.15;;;4.88;;
40355;SDS011;26061;50.044;19.930;2023-04-24T07:05:51;6.72;;;4.43;;
40355;SDS011;26061;50.044;19.930;2023-04-24T07:08:18;5.80;;;4.30;;
40355;SDS011;26061;50.044;19.930;2023-04-24T07:10:45;6.45;;;4.28;;
40355;SDS011;26061;50.044;19.930;2023-04-24T07:13:11;7.55;;;4.07;;
40355;SDS011;26061;50.044;19.930;2023-04-24T07:15:37;7.88;;;4.53;;
40355;SDS011;26061;50.044;19.930;2023-04-24T07:18:02;4.50;;;3.60;;
40355;SDS011;26061;50.044;19.930;2023-04-24T07:20:28;5.40;;;3.70;;
40355;SDS011;26061;50.044;19.930;2023-04-24T07:22:53;5.65;;;3.55;;
40355;SDS011;26061;50.044;19.930;2023-04-24T07:25:19;6.60;;;3.17;;
40355;SDS011;26061;50.044;19.930;2023-04-24T07:27:45;6.38;;;3.70;;
40355;SDS011;26061;50.044;19.930;2023-04-24T07:30:11;5.95;;;3.25;;
40355;SDS011;26061;50.044;19.930;2023-04-24T07:32:36;3.35;;;2.92;;
40355;SDS011;26061;50.044;19.930;2023-04-24T07:35:02;3.20;;;2.90;;
40355;SDS011;26061;50.044;19.930;2023-04-24T07:37:28;3.55;;;3.22;;
40355;SDS011;26061;50.044;19.930;2023-04-24T07:39:54;7.32;;;3.38;;
40355;SDS011;26061;50.044;19.930;2023-04-24T07:42:19;6.72;;;3.40;;
40355;SDS011;26061;50.044;19.930;2023-04-24T07:44:45;6.93;;;3.65;;
40355;SDS011;26061;50.044;19.930;2023-04-24T07:47:12;4.30;;;3.35;;
40355;SDS011;26061;50.044;19.930;2023-04-24T07:49:40;5.38;;;3.25;;
40355;SDS011;26061;50.044;19.930;2023-04-24T07:52:06;5.13;;;3.40;;
40355;SDS011;26061;50.044;19.930;2023-04-24T07:54:32;3.70;;;3.20;;
40355;SDS011;26061;50.044;19.930;2023-04-24T07:56:57;7.05;;;3.70;;
40355;SDS011;26061;50.044;19.930;2023-04-24T07:59:23;4.57;;;3.38;;
40355;SDS011;26061;50.044;19.930;2023-04-24T08:01:48;7.70;;;4.18;;
40355;SDS011;26061;50.044;19.930;2023-04-24T08:04:14;5.95;;;3.63;;
40355;SDS011;26061;50.044;19.930;2023-04-24T08:06:39;4.93;;;3.40;;
40355;SDS011;26061;50.044;19.930;2023-04-24T08:09:05;4.80;;;3.33;;
40355;SDS011;26061;50.044;19.930;2023-04-24T08:11:31;8.15;;;3.70;;
40355;SDS011;26061;50.044;19.930;2023-04-24T08:13:57;5.28;;;3.47;;
40355;SDS011;26061;50.044;19.930;2023-04-24T08:16:22;4.50;;;3.60;;
40355;SDS011;26061;50.044;19.930;2023-04-24T08:18:51;4.90;;;3.65;;
40355;SDS011;26061;50.044;19.930;2023-04-24T08:21:17;4.82;;;3.33;;
40355;SDS011;26061;50.044;19.930;2023-04-24T08:23:44;6.85;;;3.20;;
40355;SDS011;26061;50.044;19.930;2023-04-24T08:26:10;5.28;;;3.63;;
40355;SDS011;26061;50.044;19.930;2023-04-24T08:28:36;5.97;;;3.75;;
40355;SDS011;26061;50.044;19.930;2023-04-24T08:31:02;3.55;;;3.25;;
40355;SDS011;26061;50.044;19.930;2023-04-24T08:33:27;4.82;;;3.20;;
40355;SDS011;26061;50.044;19.930;2023-04-24T08:35:59;4.00;;;2.92;;
40355;SDS011;26061;50.044;19.930;2023-04-24T08:38:26;6.85;;;3.35;;
40355;SDS011;26061;50.044;19.930;2023-04-24T08:40:51;3.40;;;3.10;;
40355;SDS011;26061;50.044;19.930;2023-04-24T08:43:17;3.08;;;2.78;;
40355;SDS011;26061;50.044;19.930;2023-04-24T08:45:43;4.97;;;3.53;;
40355;SDS011;26061;50.044;19.930;2023-04-24T08:48:09;3.47;;;2.92;;
40355;SDS011;26061;50.044;19.930;2023-04-24T08:50:34;4.43;;;3.22;;
40355;SDS011;26061;50.044;19.930;2023-04-24T08:53:00;4.60;;;3.22;;
40355;SDS011;26061;50.044;19.930;2023-04-24T08:55:26;3.63;;;3.00;;
40355;SDS011;26061;50.044;19.930;2023-04-24T08:57:52;3.67;;;3.08;;
40355;SDS011;26061;50.044;19.930;2023-04-24T09:00:19;4.28;;;2.75;;
40355;SDS011;26061;50.044;19.930;2023-04-24T09:02:45;3.63;;;3.10;;
40355;SDS011;26061;50.044;19.930;2023-04-24T09:05:12;3.53;;;3.05;;
40355;SDS011;26061;50.044;19.930;2023-04-24T09:07:39;5.47;;;3.03;;
40355;SDS011;26061;50.044;19.930;2023-04-24T09:10:05;4.63;;;2.70;;
40355;SDS011;26061;50.044;19.930;2023-04-24T09:12:32;2.85;;;2.55;;
40355;SDS011;26061;50.044;19.930;2023-04-24T09:14:58;3.17;;;2.50;;
40355;SDS011;26061;50.044;19.930;2023-04-24T09:17:24;3.30;;;2.70;;
40355;SDS011;26061;50.044;19.930;2023-04-24T09:19:52;3.00;;;2.65;;
40355;SDS011;26061;50.044;19.930;2023-04-24T09:22:17;4.53;;;3.33;;
40355;SDS011;26061;50.044;19.930;2023-04-24T09:24:43;3.47;;;2.78;;
40355;SDS011;26061;50.044;19.930;2023-04-24T09:27:10;3.47;;;2.55;;
40355;SDS011;26061;50.044;19.930;2023-04-24T09:29:37;3.55;;;2.88;;
40355;SDS011;26061;50.044;19.930;2023-04-24T09:32:18;3.38;;;2.80;;
40355;SDS011;26061;50.044;19.930;2023-04-24T09:34:44;5.47;;;3.63;;
40355;SDS011;26061;50.044;19.930;2023-04-24T09:37:15;3.33;;;3.03;;
40355;SDS011;26061;50.044;19.930;2023-04-24T09:39:43;3.67;;;3.00;;
40355;SDS011;26061;50.044;19.930;2023-04-24T09:42:09;2.60;;;2.40;;
40355;SDS011;26061;50.044;19.930;2023-04-24T09:44:34;2.72;;;2.53;;
40355;SDS011;26061;50.044;19.930;2023-04-24T09:47:00;3.60;;;3.00;;
40355;SDS011;26061;50.044;19.930;2023-04-24T09:51:51;4.32;;;3.03;;
40355;SDS011;26061;50.044;19.930;2023-04-24T09:54:18;3.53;;;3.22;;
40355;SDS011;26061;50.044;19.930;2023-04-24T09:56:46;4.80;;;3.30;;
40355;SDS011;26061;50.044;19.930;2023-04-24T09:59:14;4.13;;;3.22;;
40355;SDS011;26061;50.044;19.930;2023-04-24T10:01:40;2.95;;;2.70;;
40355;SDS011;26061;50.044;19.930;2023-04-24T10:06:42;4.30;;;3.00;;
40355;SDS011;26061;50.044;19.930;2023-04-24T10:09:08;4.93;;;2.70;;
40355;SDS011;26061;50.044;19.930;2023-04-24T10:11:36;3.80;;;2.95;;
40355;SDS011;26061;50.044;19.930;2023-04-24T10:14:02;3.15;;;2.85;;
40355;SDS011;26061;50.044;19.930;2023-04-24T10:16:27;8.23;;;3.28;;
40355;SDS011;26061;50.044;19.930;2023-04-24T10:18:53;3.22;;;2.90;;
40355;SDS011;26061;50.044;19.930;2023-04-24T10:21:19;3.63;;;2.85;;
40355;SDS011;26061;50.044;19.930;2023-04-24T10:23:45;3.72;;;3.13;;
40355;SDS011;26061;50.044;19.930;2023-04-24T10:26:12;3.85;;;3.17;;
40355;SDS011;26061;50.044;19.930;2023-04-24T10:28:43;3.03;;;2.83;;
40355;SDS011;26061;50.044;19.930;2023-04-24T10:31:10;4.22;;;2.97;;
40355;SDS011;26061;50.044;19.930;2023-04-24T10:33:35;3.55;;;3.22;;
40355;SDS011;26061;50.044;19.930;2023-04-24T10:36:01;3.30;;;2.50;;
40355;SDS011;26061;50.044;19.930;2023-04-24T10:38:27;6.43;;;3.15;;
40355;SDS011;26061;50.044;19.930;2023-04-24T10:41:26;3.88;;;2.70;;
40355;SDS011;26061;50.044;19.930;2023-04-24T10:43:48;3.20;;;2.90;;
40355;SDS011;26061;50.044;19.930;2023-04-24T10:46:17;3.25;;;2.92;;
40355;SDS011;26061;50.044;19.930;2023-04-24T10:48:44;3.20;;;2.70;;
40355;SDS011;26061;50.044;19.930;2023-04-24T10:51:17;3.20;;;2.95;;
40355;SDS011;26061;50.044;19.930;2023-04-24T10:53:42;4.10;;;3.30;;
40355;SDS011;26061;50.044;19.930;2023-04-24T10:56:08;3.45;;;3.00;;
40355;SDS011;26061;50.044;19.930;2023-04-24T11:01:05;4.07;;;3.22;;
40355;SDS011;26061;50.044;19.930;2023-04-24T11:03:32;3.17;;;2.95;;
40355;SDS011;26061;50.044;19.930;2023-04-24T11:08:27;6.25;;;2.72;;
40355;SDS011;26061;50.044;19.930;2023-04-24T11:10:57;4.15;;;3.03;;
40355;SDS011;26061;50.044;19.930;2023-04-24T11:13:24;3.17;;;2.88;;
40355;SDS011;26061;50.044;19.930;2023-04-24T11:16:12;4.93;;;2.97;;
40355;SDS011;26061;50.044;19.930;2023-04-24T11:18:37;3.28;;;3.00;;
40355;SDS011;26061;50.044;19.930;2023-04-24T11:21:09;3.10;;;2.90;;
40355;SDS011;26061;50.044;19.930;2023-04-24T11:23:36;3.67;;;2.80;;
40355;SDS011;26061;50.044;19.930;2023-04-24T11:26:12;3.40;;;2.58;;
40355;SDS011;26061;50.044;19.930;2023-04-24T11:28:43;3.35;;;3.03;;
40355;SDS011;26061;50.044;19.930;2023-04-24T11:33:53;5.88;;;4.15;;
40355;SDS011;26061;50.044;19.930;2023-04-24T11:36:19;3.60;;;3.30;;
40355;SDS011;26061;50.044;19.930;2023-04-24T11:38:44;4.07;;;3.55;;
40355;SDS011;26061;50.044;19.930;2023-04-24T11:41:11;4.25;;;3.47;;
40355;SDS011;26061;50.044;19.930;2023-04-24T11:43:36;90.50;;;86.45;;
40355;SDS011;26061;50.044;19.930;2023-04-24T11:46:02;39.30;;;37.33;;
40355;SDS011;26061;50.044;19.930;2023-04-24T11:48:27;191.82;;;183.02;;
40355;SDS011;26061;50.044;19.930;2023-04-24T11:50:53;268.05;;;255.95;;
40355;SDS011;26061;50.044;19.930;2023-04-24T11:53:19;402.50;;;383.58;;
40355;SDS011;26061;50.044;19.930;2023-04-24T11:55:46;442.25;;;421.80;;
40355;SDS011;26061;50.044;19.930;2023-04-24T11:58:11;489.23;;;465.08;;
40355;SDS011;26061;50.044;19.930;2023-04-24T12:00:37;379.83;;;361.90;;
40355;SDS011;26061;50.044;19.930;2023-04-24T12:03:07;405.40;;;386.92;;
40355;SDS011;26061;50.044;19.930;2023-04-24T12:05:33;359.92;;;343.60;;
40355;SDS011;26061;50.044;19.930;2023-04-24T12:07:59;642.90;;;607.42;;
40355;SDS011;26061;50.044;19.930;2023-04-24T12:10:26;972.65;;;904.22;;
40355;SDS011;26061;50.044;19.930;2023-04-24T12:12:52;978.25;;;910.20;;
40355;SDS011;26061;50.044;19.930;2023-04-24T12:15:18;447.48;;;426.20;;
40355;SDS011;26061;50.044;19.930;2023-04-24T12:17:44;690.60;;;650.22;;
40355;SDS011;26061;50.044;19.930;2023-04-24T12:20:10;436.92;;;416.73;;
40355;SDS011;26061;50.044;19.930;2023-04-24T12:25:32;415.02;;;395.88;;
40355;SDS011;26061;50.044;19.930;2023-04-24T12:30:29;41.50;;;39.28;;
40355;SDS011;26061;50.044;19.930;2023-04-24T12:32:56;66.90;;;63.70;;
40355;SDS011;26061;50.044;19.930;2023-04-24T12:35:23;5.57;;;3.92;;
40355;SDS011;26061;50.044;19.930;2023-04-24T12:37:48;5.78;;;3.35;;
40355;SDS011;26061;50.044;19.930;2023-04-24T12:40:15;5.75;;;3.25;;
40355;SDS011;26061;50.044;19.930;2023-04-24T12:42:46;4.50;;;3.13;;
40355;SDS011;26061;50.044;19.930;2023-04-24T12:45:12;4.43;;;3.17;;
40355;SDS011;26061;50.044;19.930;2023-04-24T12:47:39;5.90;;;3.35;;
40355;SDS011;26061;50.044;19.930;2023-04-24T12:50:05;3.38;;;3.00;;
40355;SDS011;26061;50.044;19.930;2023-04-24T12:52:31;3.53;;;3.22;;
40355;SDS011;26061;50.044;19.930;2023-04-24T12:54:57;3.35;;;3.05;;
40355;SDS011;26061;50.044;19.930;2023-04-24T12:57:23;9.65;;;3.83;;
40355;SDS011;26061;50.044;19.930;2023-04-24T12:59:49;5.18;;;3.88;;
40355;SDS011;26061;50.044;19.930;2023-04-24T13:02:15;4.50;;;3.97;;
40355;SDS011;26061;50.044;19.930;2023-04-24T13:04:46;5.15;;;3.65;;
40355;SDS011;26061;50.044;19.930;2023-04-24T13:07:12;5.45;;;4.22;;
40355;SDS011;26061;50.044;19.930;2023-04-24T13:09:38;4.97;;;4.38;;
40355;SDS011;26061;50.044;19.930;2023-04-24T13:12:03;6.72;;;4.53;;
40355;SDS011;26061;50.044;19.930;2023-04-24T13:14:31;10.25;;;4.43;;
40355;SDS011;26061;50.044;19.930;2023-04-24T13:16:56;6.20;;;4.72;;
40355;SDS011;26061;50.044;19.930;2023-04-24T13:19:24;7.15;;;4.78;;
40355;SDS011;26061;50.044;19.930;2023-04-24T13:21:49;8.73;;;4.75;;
40355;SDS011;26061;50.044;19.930;2023-04-24T13:24:15;7.88;;;5.20;;
40355;SDS011;26061;50.044;19.930;2023-04-24T13:26:41;4.57;;;4.18;;
40355;SDS011;26061;50.044;19.930;2023-04-24T13:29:06;8.05;;;4.57;;
40355;SDS011;26061;50.044;19.930;2023-04-24T13:31:32;6.13;;;4.50;;
40355;SDS011;26061;50.044;19.930;2023-04-24T13:33:57;6.18;;;4.53;;
40355;SDS011;26061;50.044;19.930;2023-04-24T13:36:23;10.10;;;4.57;;
40355;SDS011;26061;50.044;19.930;2023-04-24T13:38:49;7.35;;;4.82;;
40355;SDS011;26061;50.044;19.930;2023-04-24T13:41:14;6.13;;;4.35;;
40355;SDS011;26061;50.044;19.930;2023-04-24T13:43:40;6.70;;;4.13;;
40355;SDS011;26061;50.044;19.930;2023-04-24T13:46:08;7.20;;;5.07;;
40355;SDS011;26061;50.044;19.930;2023-04-24T13:48:34;5.72;;;4.75;;
40355;SDS011;26061;50.044;19.930;2023-04-24T13:50:59;7.57;;;4.40;;
40355;SDS011;26061;50.044;19.930;2023-04-24T13:53:25;5.15;;;4.68;;
40355;SDS011;26061;50.044;19.930;2023-04-24T13:55:50;6.25;;;4.38;;
40355;SDS011;26061;50.044;19.930;2023-04-24T13:58:16;4.53;;;4.03;;
40355;SDS011;26061;50.044;19.930;2023-04-24T14:00:41;6.80;;;4.72;;
40355;SDS011;26061;50.044;19.930;2023-04-24T14:03:07;4.05;;;3.75;;
40355;SDS011;26061;50.044;19.930;2023-04-24T14:05:34;5.18;;;4.43;;
40355;SDS011;26061;50.044;19.930;2023-04-24T14:08:00;5.60;;;4.35;;
40355;SDS011;26061;50.044;19.930;2023-04-24T14:10:25;6.75;;;4.43;;
40355;SDS011;26061;50.044;19.930;2023-04-24T14:12:52;6.28;;;4.55;;
40355;SDS011;26061;50.044;19.930;2023-04-24T14:15:18;8.52;;;4.90;;
40355;SDS011;26061;50.044;19.930;2023-04-24T14:17:44;4.85;;;3.80;;
40355;SDS011;26061;50.044;19.930;2023-04-24T14:20:09;4.65;;;4.25;;
40355;SDS011;26061;50.044;19.930;2023-04-24T14:22:35;4.20;;;3.80;;
40355;SDS011;26061;50.044;19.930;2023-04-24T14:25:01;6.72;;;4.53;;
40355;SDS011;26061;50.044;19.930;2023-04-24T14:27:26;4.88;;;4.38;;
40355;SDS011;26061;50.044;19.930;2023-04-24T14:29:52;7.35;;;4.55;;
40355;SDS011;26061;50.044;19.930;2023-04-24T14:32:17;5.85;;;4.47;;